Time,TemperatureF,DewpointF,PressureIn,WindDirection,WindDirectionDegrees,WindSpeedMPH,WindSpeedGustMPH,Humidity,HourlyPrecipIn,Conditions,Clouds,dailyrainin,SoftwareType,DateUTC
2013-02-25 00:07:00,34.0,27.0,29.98,NNE,29,3.0,9.0,76,0.00,,,0.00,weatherlink.com 1.10,2013-02-25 08:07:00,
2013-02-25 00:23:00,33.7,27.0,29.98,NNE,26,1.0,8.0,76,0.00,,,0.00,weatherlink.com 1.10,2013-02-25 08:23:00,
2013-02-25 00:38:00,33.3,27.0,29.98,NNE,19,3.0,8.0,77,0.00,,,0.00,weatherlink.com 1.10,2013-02-25 08:38:00,
2013-02-25 00:53:00,33.2,28.0,29.97,East,95,2.0,5.0,80,0.00,,,0.00,weatherlink.com 1.10,2013-02-25 08:53:00,
2013-02-25 01:08:00,35.2,29.0,29.95,WSW,240,5.0,9.0,79,0.00,,,0.00,weatherlink.com 1.10,2013-02-25 09:08:00,
2013-02-25 01:23:00,35.6,29.0,29.96,NE,35,5.0,9.0,78,0.00,,,0.00,weatherlink.com 1.10,2013-02-25 09:23:00,
2013-02-25 01:38:00,35.6,29.0,29.95,ENE,71,1.0,8.0,77,0.00,,,0.00,weatherlink.com 1.10,2013-02-25 09:38:00,
2013-02-25 01:53:00,35.5,29.0,29.94,ENE,76,1.0,6.0,78,0.00,,,0.00,weatherlink.com 1.10,2013-02-25 09:53:00,
2013-02-25 02:08:00,35.6,29.0,29.93,ENE,78,1.0,7.0,77,0.00,,,0.00,weatherlink.com 1.10,2013-02-25 10:08:00,
2013-02-25 02:23:00,35.4,29.0,29.93,NNE,22,3.0,10.0,78,0.00,,,0.00,weatherlink.com 1.10,2013-02-25 10:23:00,
2013-02-25 02:38:00,35.5,30.0,29.93,SE,134,1.0,7.0,80,0.00,,,0.00,weatherlink.com 1.10,2013-02-25 10:38:00,
2013-02-25 02:53:00,35.5,31.0,29.93,South,187,1.0,6.0,82,0.00,,,0.00,weatherlink.com 1.10,2013-02-25 10:53:00,
2013-02-25 03:08:00,35.1,31.0,29.92,North,354,3.0,5.0,86,0.00,,,0.00,weatherlink.com 1.10,2013-02-25 11:08:00,
2013-02-25 03:23:00,34.7,32.0,29.93,NNE,22,3.0,10.0,90,0.00,,,0.00,weatherlink.com 1.10,2013-02-25 11:23:00,
2013-02-25 03:38:00,34.1,32.0,29.92,East,84,2.0,6.0,92,0.00,,,0.00,weatherlink.com 1.10,2013-02-25 11:38:00,
2013-02-25 03:53:00,34.0,32.0,29.93,NNE,21,3.0,4.0,93,0.00,,,0.00,weatherlink.com 1.10,2013-02-25 11:53:00,
2013-02-25 04:08:00,33.7,32.0,29.94,ESE,110,0.0,4.0,94,0.00,,,0.00,weatherlink.com 1.10,2013-02-25 12:08:00,
2013-02-25 04:23:00,33.6,32.0,29.94,ESE,103,1.0,5.0,95,0.00,,,0.00,weatherlink.com 1.10,2013-02-25 12:23:00,
2013-02-25 04:38:00,33.6,32.0,29.97,ENE,70,1.0,5.0,94,0.00,,,0.00,weatherlink.com 1.10,2013-02-25 12:38:00,
2013-02-25 04:53:00,32.5,30.0,29.97,East,79,1.0,7.0,90,0.00,,,0.00,weatherlink.com 1.10,2013-02-25 12:53:00,
2013-02-25 05:08:00,32.4,30.0,29.97,ENE,60,1.0,9.0,90,0.00,,,0.00,weatherlink.com 1.10,2013-02-25 13:08:00,
2013-02-25 05:23:00,32.1,28.0,29.96,NNE,16,10.0,13.0,86,0.00,,,0.00,weatherlink.com 1.10,2013-02-25 13:23:00,
2013-02-25 05:38:00,31.2,29.0,29.96,NNE,16,4.0,8.0,90,0.00,,,0.00,weatherlink.com 1.10,2013-02-25 13:38:00,
2013-02-25 06:09:00,30.3,26.0,29.99,South,186,1.0,5.0,84,0.00,,,0.00,weatherlink.com 1.10,2013-02-25 14:09:00,
2013-02-25 06:23:00,30.1,25.0,30.00,SSW,208,2.0,4.0,82,0.00,,,0.00,weatherlink.com 1.10,2013-02-25 14:23:00,
2013-02-25 06:39:00,29.7,25.0,30.00,SSW,193,0.0,5.0,83,0.00,,,0.00,weatherlink.com 1.10,2013-02-25 14:39:00,
2013-02-25 06:54:00,29.0,25.0,30.00,East,82,5.0,6.0,84,0.00,,,0.00,weatherlink.com 1.10,2013-02-25 14:54:00,
2013-02-25 07:09:00,28.4,25.0,30.01,SSE,165,0.0,0.0,86,0.00,,,0.00,weatherlink.com 1.10,2013-02-25 15:09:00,
2013-02-25 07:24:00,28.8,25.0,30.03,South,187,0.0,2.0,87,0.00,,,0.00,weatherlink.com 1.10,2013-02-25 15:24:00,
2013-02-25 07:39:00,29.4,26.0,30.03,East,96,2.0,3.0,85,0.00,,,0.00,weatherlink.com 1.10,2013-02-25 15:39:00,
2013-02-25 07:54:00,30.8,27.0,30.03,ENE,66,2.0,4.0,84,0.00,,,0.00,weatherlink.com 1.10,2013-02-25 15:54:00,
2013-02-25 08:09:00,31.3,26.0,30.03,ESE,105,2.0,7.0,79,0.00,,,0.00,weatherlink.com 1.10,2013-02-25 16:09:00,
2013-02-25 08:24:00,32.2,26.0,30.04,East,100,1.0,6.0,77,0.00,,,0.00,weatherlink.com 1.10,2013-02-25 16:24:00,
2013-02-25 08:39:00,32.0,26.0,30.05,South,170,1.0,3.0,77,0.00,,,0.00,weatherlink.com 1.10,2013-02-25 16:39:00,
2013-02-25 08:54:00,31.7,25.0,30.05,NE,53,2.0,4.0,77,0.00,,,0.00,weatherlink.com 1.10,2013-02-25 16:54:00,
2013-02-25 09:09:00,32.2,25.0,30.05,SSE,155,0.0,5.0,74,0.00,,,0.00,weatherlink.com 1.10,2013-02-25 17:09:00,
2013-02-25 09:24:00,32.8,25.0,30.06,East,89,1.0,7.0,72,0.00,,,0.00,weatherlink.com 1.10,2013-02-25 17:24:00,
2013-02-25 09:39:00,33.4,26.0,30.06,South,169,2.0,4.0,73,0.00,,,0.00,weatherlink.com 1.10,2013-02-25 17:39:00,
2013-02-25 09:54:00,33.0,26.0,30.06,East,89,3.0,7.0,76,0.00,,,0.00,weatherlink.com 1.10,2013-02-25 17:54:00,
2013-02-25 10:09:00,33.8,23.0,30.07,SW,233,4.0,25.0,66,0.00,,,0.00,weatherlink.com 1.10,2013-02-25 18:09:00,
2013-02-25 10:24:00,34.1,23.0,30.07,ESE,109,3.0,10.0,64,0.00,,,0.00,weatherlink.com 1.10,2013-02-25 18:24:00,
2013-02-25 10:39:00,34.5,23.0,30.07,NNE,32,2.0,9.0,63,0.00,,,0.00,weatherlink.com 1.10,2013-02-25 18:39:00,
2013-02-25 10:54:00,34.1,25.0,30.08,East,80,4.0,10.0,68,0.00,,,0.00,weatherlink.com 1.10,2013-02-25 18:54:00,
2013-02-25 11:09:00,32.6,25.0,30.09,SSE,164,0.0,7.0,74,0.00,,,0.00,weatherlink.com 1.10,2013-02-25 19:09:00,
2013-02-25 11:24:00,34.0,24.0,30.09,East,88,2.0,12.0,66,0.00,,,0.00,weatherlink.com 1.10,2013-02-25 19:24:00,
2013-02-25 11:39:00,34.7,24.0,30.08,SSE,150,0.0,6.0,64,0.00,,,0.00,weatherlink.com 1.10,2013-02-25 19:39:00,
2013-02-25 11:54:00,34.8,24.0,30.09,South,190,2.0,9.0,65,0.00,,,0.00,weatherlink.com 1.10,2013-02-25 19:54:00,
2013-02-25 12:09:00,34.3,26.0,30.09,SW,226,4.0,11.0,72,0.00,,,0.00,weatherlink.com 1.10,2013-02-25 20:09:00,
2013-02-25 12:24:00,34.5,26.0,30.08,East,89,1.0,12.0,72,0.00,,,0.00,weatherlink.com 1.10,2013-02-25 20:24:00,
2013-02-25 12:39:00,35.3,27.0,30.08,NE,54,2.0,11.0,72,0.00,,,0.00,weatherlink.com 1.10,2013-02-25 20:39:00,
2013-02-25 12:54:00,35.7,26.0,30.08,East,84,3.0,9.0,68,0.00,,,0.00,weatherlink.com 1.10,2013-02-25 20:54:00,
2013-02-25 13:09:00,34.2,26.0,30.08,ESE,113,0.0,8.0,73,0.00,,,0.00,weatherlink.com 1.10,2013-02-25 21:09:00,
2013-02-25 13:24:00,34.8,25.0,30.09,NE,36,3.0,6.0,67,0.00,,,0.00,weatherlink.com 1.10,2013-02-25 21:24:00,
2013-02-25 13:39:00,34.5,26.0,30.09,ESE,104,2.0,14.0,72,0.00,,,0.00,weatherlink.com 1.10,2013-02-25 21:39:00,
2013-02-25 13:54:00,33.6,26.0,30.08,SSW,211,5.0,8.0,75,0.00,,,0.00,weatherlink.com 1.10,2013-02-25 21:54:00,
2013-02-25 14:09:00,34.1,26.0,30.07,SW,225,4.0,8.0,73,0.00,,,0.00,weatherlink.com 1.10,2013-02-25 22:09:00,
2013-02-25 14:24:00,35.2,26.0,30.07,SW,217,2.0,9.0,68,0.00,,,0.00,weatherlink.com 1.10,2013-02-25 22:24:00,
2013-02-25 14:54:00,33.0,27.0,30.08,SE,126,0.0,6.0,80,0.00,,,0.00,weatherlink.com 1.10,2013-02-25 22:54:00,
2013-02-25 15:09:00,34.5,24.0,30.08,East,91,6.0,10.0,66,0.00,,,0.00,weatherlink.com 1.10,2013-02-25 23:09:00,
2013-02-25 15:24:00,35.3,21.0,30.07,ENE,72,1.0,7.0,56,0.00,,,0.00,weatherlink.com 1.10,2013-02-25 23:24:00,
2013-02-25 15:39:00,35.6,21.0,30.07,SW,226,6.0,9.0,55,0.00,,,0.00,weatherlink.com 1.10,2013-02-25 23:39:00,
2013-02-25 15:54:00,34.7,22.0,30.07,ESE,103,1.0,9.0,61,0.00,,,0.00,weatherlink.com 1.10,2013-02-25 23:54:00,
2013-02-25 16:09:00,33.3,21.0,30.07,WSW,238,5.0,9.0,61,0.00,,,0.00,weatherlink.com 1.10,2013-02-26 00:09:00,
2013-02-25 16:24:00,32.7,21.0,30.07,SSE,155,1.0,13.0,63,0.00,,,0.00,weatherlink.com 1.10,2013-02-26 00:24:00,
2013-02-25 16:39:00,32.0,21.0,30.08,South,179,1.0,14.0,64,0.00,,,0.00,weatherlink.com 1.10,2013-02-26 00:39:00,
2013-02-25 16:54:00,31.6,22.0,30.10,SE,140,0.0,4.0,67,0.00,,,0.00,weatherlink.com 1.10,2013-02-26 00:54:00,
2013-02-25 17:09:00,30.7,21.0,30.11,South,169,0.0,5.0,68,0.00,,,0.00,weatherlink.com 1.10,2013-02-26 01:09:00,
2013-02-25 17:24:00,29.7,19.0,30.12,South,184,0.0,11.0,65,0.00,,,0.00,weatherlink.com 1.10,2013-02-26 01:24:00,
2013-02-25 17:39:00,29.3,20.0,30.11,South,174,0.0,3.0,68,0.00,,,0.00,weatherlink.com 1.10,2013-02-26 01:39:00,
2013-02-25 17:54:00,29.3,21.0,30.11,East,86,2.0,5.0,70,0.00,,,0.00,weatherlink.com 1.10,2013-02-26 01:54:00,
2013-02-25 18:09:00,29.1,21.0,30.11,SSE,148,1.0,3.0,73,0.00,,,0.00,weatherlink.com 1.10,2013-02-26 02:09:00,
2013-02-25 18:25:00,28.9,22.0,30.11,SSE,152,0.0,5.0,74,0.00,,,0.00,weatherlink.com 1.10,2013-02-26 02:25:00,
2013-02-25 18:40:00,28.9,22.0,30.12,South,174,1.0,4.0,75,0.00,,,0.00,weatherlink.com 1.10,2013-02-26 02:40:00,
2013-02-25 18:55:00,29.1,23.0,30.13,East,83,1.0,3.0,77,0.00,,,0.00,weatherlink.com 1.10,2013-02-26 02:55:00,
2013-02-25 19:10:00,29.0,23.0,30.13,SW,235,2.0,5.0,77,0.00,,,0.00,weatherlink.com 1.10,2013-02-26 03:10:00,
2013-02-25 19:25:00,28.8,22.0,30.13,SE,134,0.0,2.0,77,0.00,,,0.00,weatherlink.com 1.10,2013-02-26 03:25:00,
2013-02-25 19:40:00,28.8,22.0,30.13,South,174,0.0,2.0,77,0.00,,,0.00,weatherlink.com 1.10,2013-02-26 03:40:00,
2013-02-25 19:55:00,28.7,23.0,30.14,South,174,0.0,1.0,78,0.00,,,0.00,weatherlink.com 1.10,2013-02-26 03:55:00,
2013-02-25 20:10:00,29.1,22.0,30.14,ESE,104,0.0,4.0,76,0.00,,,0.00,weatherlink.com 1.10,2013-02-26 04:10:00,
2013-02-25 20:25:00,29.2,23.0,30.14,East,87,5.0,5.0,78,0.00,,,0.00,weatherlink.com 1.10,2013-02-26 04:25:00,
2013-02-25 20:40:00,28.8,23.0,30.15,SSW,204,2.0,3.0,80,0.00,,,0.00,weatherlink.com 1.10,2013-02-26 04:40:00,
2013-02-25 20:55:00,28.5,23.0,30.16,SE,125,1.0,5.0,81,0.00,,,0.00,weatherlink.com 1.10,2013-02-26 04:55:00,
2013-02-25 21:10:00,28.4,24.0,30.16,SSE,153,0.0,3.0,83,0.00,,,0.00,weatherlink.com 1.10,2013-02-26 05:10:00,
2013-02-25 21:25:00,28.1,24.0,30.15,SE,128,0.0,2.0,83,0.00,,,0.00,weatherlink.com 1.10,2013-02-26 05:25:00,
2013-02-25 21:40:00,27.7,23.0,30.17,SE,128,0.0,0.0,83,0.00,,,0.00,weatherlink.com 1.10,2013-02-26 05:40:00,
2013-02-25 21:55:00,27.3,22.0,30.16,ESE,115,7.0,9.0,80,0.00,,,0.00,weatherlink.com 1.10,2013-02-26 05:55:00,
2013-02-25 22:10:00,28.3,22.0,30.17,ESE,110,0.0,2.0,77,0.00,,,0.00,weatherlink.com 1.10,2013-02-26 06:10:00,
2013-02-25 22:25:00,27.2,22.0,30.17,ESE,110,0.0,2.0,80,0.00,,,0.00,weatherlink.com 1.10,2013-02-26 06:25:00,
2013-02-25 22:40:00,26.4,23.0,30.18,SE,145,0.0,1.0,85,0.00,,,0.00,weatherlink.com 1.10,2013-02-26 06:40:00,
2013-02-25 22:55:00,26.3,22.0,30.17,ESE,105,0.0,2.0,83,0.00,,,0.00,weatherlink.com 1.10,2013-02-26 06:55:00,
2013-02-25 23:10:00,25.7,22.0,30.17,SE,142,0.0,0.0,84,0.00,,,0.00,weatherlink.com 1.10,2013-02-26 07:10:00,
2013-02-25 23:25:00,25.3,21.0,30.18,South,169,0.0,2.0,82,0.00,,,0.00,weatherlink.com 1.10,2013-02-26 07:25:00,
2013-02-25 23:40:00,25.6,21.0,30.17,SSE,159,0.0,2.0,81,0.00,,,0.00,weatherlink.com 1.10,2013-02-26 07:40:00,
2013-02-25 23:55:00,24.7,21.0,30.18,SE,145,0.0,1.0,84,0.00,,,0.00,weatherlink.com 1.10,2013-02-26 07:55:00,